Time;durP1;ratioP1;P1;durP2;ratioP2;P2;SDS_P1;SDS_P2;PMS_P1;PMS_P2;Temp;Humidity;BMP_temperature;BMP_pressure;BME280_temperature;BME280_humidity;BME280_pressure;Samples;Min_cycle;Max_cycle;Signal;HPM_P1;HPM_P2
2021/06/04 09:56:33;;;;;;;4.70;3.30;;;;;;;;;;5062093;28;20191;-90
2021/06/04 09:59:39;;;;;;;8.75;3.67;;;;;;;;;;5021293;28;20203;-91
2021/06/04 10:02:43;;;;;;;31.77;4.80;;;;;;;;;;5032927;28;20696;-91
2021/06/04 10:05:50;;;;;;;12.68;3.28;;;;;;;;;;5044845;28;20178;-91
2021/06/04 10:08:58;;;;;;;7.97;3.30;;;;;;;;;;5033460;28;20176;-92
2021/06/04 10:12:08;;;;;;;13.50;3.83;;;;;;;;;;5022295;28;20227;-91
2021/06/04 10:15:12;;;;;;;8.63;3.17;;;;;;;;;;5032848;28;20207;-91
2021/06/04 10:18:36;;;;;;;6.45;2.92;;;;;;;;;;5021878;28;20183;-91
2021/06/04 10:21:41;;;;;;;4.95;2.92;;;;;;;;;;5021995;28;20725;-91
2021/06/04 10:24:49;;;;;;;7.18;3.03;;;;;;;;;;5043872;28;20175;-91
2021/06/04 10:27:56;;;;;;;7.80;3.30;;;;;;;;;;5032049;28;20249;-90
2021/06/04 10:31:09;;;;;;;7.15;2.95;;;;;;;;;;5020533;28;20211;-91
2021/06/04 10:34:39;;;;;;;4.68;2.90;;;;;;;;;;5043294;28;20212;-91
2021/06/04 10:38:00;;;;;;;2.95;2.70;;;;;;;;;;5030894;28;20180;-91
2021/06/04 10:41:10;;;;;;;6.85;3.00;;;;;;;;;;5030037;28;20220;-91
2021/06/04 10:44:20;;;;;;;3.10;2.60;;;;;;;;;;5030211;28;20177;-91
2021/06/04 10:47:47;;;;;;;5.28;2.47;;;;;;;;;;5041760;28;20635;-91
2021/06/04 10:51:34;;;;;;;2.55;2.10;;;;;;;;;;5041969;28;20258;-91
2021/06/04 10:54:53;;;;;;;2.45;2.25;;;;;;;;;;5014383;28;20209;-91
2021/06/04 10:58:23;;;;;;;4.70;2.25;;;;;;;;;;5042033;28;20176;-92
2021/06/04 11:01:39;;;;;;;3.33;2.45;;;;;;;;;;5030536;28;20211;-91
2021/06/04 11:05:01;;;;;;;2.20;2.00;;;;;;;;;;5041280;28;20567;-89
2021/06/04 11:08:25;;;;;;;10.40;2.67;;;;;;;;;;5042603;28;20180;-89
2021/06/04 11:11:44;;;;;;;3.35;2.28;;;;;;;;;;5019479;28;20212;-85
2021/06/04 11:15:20;;;;;;;3.08;2.30;;;;;;;;;;5031716;28;20529;-85
2021/06/04 11:18:41;;;;;;;2.60;2.28;;;;;;;;;;5020208;28;20631;-85
2021/06/04 11:22:02;;;;;;;3.83;1.90;;;;;;;;;;5042597;28;20228;-85
2021/06/04 11:25:24;;;;;;;3.55;2.13;;;;;;;;;;5041319;28;20212;-85
2021/06/04 11:28:31;;;;;;;2.35;1.90;;;;;;;;;;5018865;28;20520;-85
2021/06/04 11:31:47;;;;;;;2.50;1.60;;;;;;;;;;5030025;28;20220;-85
2021/06/04 11:34:56;;;;;;;4.10;1.60;;;;;;;;;;5029777;28;20627;-85
2021/06/04 11:38:06;;;;;;;2.97;1.70;;;;;;;;;;5030141;28;20177;-85
2021/06/04 11:41:40;;;;;;;5.20;1.90;;;;;;;;;;5030515;28;20562;-85
2021/06/04 11:44:49;;;;;;;3.60;1.98;;;;;;;;;;5029987;28;20683;-85
2021/06/04 11:47:54;;;;;;;2.53;1.65;;;;;;;;;;5052560;28;20181;-85
2021/06/04 11:51:17;;;;;;;2.58;2.03;;;;;;;;;;5041628;28;20216;-84
2021/06/04 11:54:34;;;;;;;3.47;1.90;;;;;;;;;;5031288;28;20181;-84
2021/06/04 11:57:52;;;;;;;3.72;1.90;;;;;;;;;;5044477;28;20196;-85
2021/06/04 12:01:18;;;;;;;3.72;1.80;;;;;;;;;;4983391;28;20735;-85
2021/06/04 12:04:23;;;;;;;2.70;1.70;;;;;;;;;;4988768;28;20218;-84
2021/06/04 12:07:42;;;;;;;2.38;1.77;;;;;;;;;;4985938;28;20179;-84
2021/06/04 12:10:49;;;;;;;2.50;2.10;;;;;;;;;;4997133;28;20222;-84
2021/06/04 12:13:55;;;;;;;2.45;1.73;;;;;;;;;;4988614;28;20185;-85
2021/06/04 12:17:26;;;;;;;1.73;1.58;;;;;;;;;;4994400;28;20181;-84
2021/06/04 12:20:30;;;;;;;3.40;1.70;;;;;;;;;;4991600;28;20189;-84
2021/06/04 12:23:43;;;;;;;4.43;2.13;;;;;;;;;;4979909;28;20194;-83
2021/06/04 12:26:54;;;;;;;3.35;2.00;;;;;;;;;;4974312;28;20633;-84
2021/06/04 12:29:58;;;;;;;2.20;2.00;;;;;;;;;;4975101;28;20657;-83
2021/06/04 12:33:03;;;;;;;2.00;1.80;;;;;;;;;;4974778;28;20190;-84
2021/06/04 12:36:43;;;;;;;2.10;1.83;;;;;;;;;;4995896;28;20182;-84
2021/06/04 12:39:58;;;;;;;3.13;2.10;;;;;;;;;;4926415;28;20208;-84
2021/06/04 12:43:02;;;;;;;3.83;2.03;;;;;;;;;;4990328;28;20194;-83
2021/06/04 12:46:17;;;;;;;6.07;2.15;;;;;;;;;;4993987;28;20201;-83
2021/06/04 12:49:22;;;;;;;5.32;1.90;;;;;;;;;;5016544;28;20652;-83
2021/06/04 12:52:27;;;;;;;2.75;1.85;;;;;;;;;;4993238;28;20217;-87
2021/06/04 12:55:34;;;;;;;2.55;1.90;;;;;;;;;;4990919;28;20190;-87
2021/06/04 12:58:43;;;;;;;4.88;1.83;;;;;;;;;;4980985;28;20193;-87
2021/06/04 13:01:56;;;;;;;4.47;2.20;;;;;;;;;;4992571;28;20209;-87
2021/06/04 13:05:07;;;;;;;5.40;2.30;;;;;;;;;;4992497;28;20209;-87
2021/06/04 13:08:15;;;;;;;2.45;2.05;;;;;;;;;;5003406;28;20640;-87
2021/06/04 13:11:44;;;;;;;2.28;2.08;;;;;;;;;;5026897;28;20572;-87
2021/06/04 13:14:51;;;;;;;2.92;1.83;;;;;;;;;;4992918;28;20182;-87
2021/06/04 13:18:09;;;;;;;1.98;1.77;;;;;;;;;;4981185;28;20186;-87
2021/06/04 13:21:39;;;;;;;3.15;1.77;;;;;;;;;;5003091;28;20557;-87
2021/06/04 13:24:46;;;;;;;2.05;1.80;;;;;;;;;;5014709;28;20209;-87
2021/06/04 13:28:04;;;;;;;4.68;2.03;;;;;;;;;;5023951;28;20190;-87
2021/06/04 13:31:17;;;;;;;2.58;1.95;;;;;;;;;;5003174;28;20217;-86
2021/06/04 13:34:27;;;;;;;2.38;1.83;;;;;;;;;;4991847;28;20182;-86
2021/06/04 13:37:34;;;;;;;3.58;1.80;;;;;;;;;;4991862;28;20644;-86
2021/06/04 13:40:41;;;;;;;2.42;2.20;;;;;;;;;;5002993;28;20648;-86
2021/06/04 13:43:49;;;;;;;2.38;1.90;;;;;;;;;;5015089;28;20526;-86
2021/06/04 13:47:04;;;;;;;2.88;1.55;;;;;;;;;;4973043;28;20186;-87
2021/06/04 13:50:17;;;;;;;3.25;2.13;;;;;;;;;;4961100;28;20183;-86
2021/06/04 13:53:32;;;;;;;9.25;2.40;;;;;;;;;;4973088;28;20198;-87
2021/06/04 13:56:39;;;;;;;2.45;2.00;;;;;;;;;;4983152;28;20186;-87
2021/06/04 13:59:43;;;;;;;3.00;2.00;;;;;;;;;;4972100;28;20190;-86
2021/06/04 14:03:10;;;;;;;2.00;1.80;;;;;;;;;;4960786;28;20225;-84
2021/06/04 14:06:20;;;;;;;7.03;2.40;;;;;;;;;;4972249;28;20292;-84
2021/06/04 14:09:32;;;;;;;6.60;1.95;;;;;;;;;;4956850;28;20648;-85
2021/06/04 14:12:37;;;;;;;2.72;2.08;;;;;;;;;;4972199;28;20497;-85
2021/06/04 14:16:00;;;;;;;4.93;2.35;;;;;;;;;;4999414;28;20182;-85
2021/06/04 14:19:06;;;;;;;4.63;2.38;;;;;;;;;;4976586;28;20531;-87
2021/06/04 14:22:33;;;;;;;30.55;3.53;;;;;;;;;;4999705;28;20705;-89
2021/06/04 14:25:37;;;;;;;14.77;3.10;;;;;;;;;;4976814;28;20214;-84
2021/06/04 14:28:42;;;;;;;9.57;2.50;;;;;;;;;;4987531;28;20411;-86
2021/06/04 14:32:04;;;;;;;11.20;2.30;;;;;;;;;;4976649;28;20211;-85
2021/06/04 14:35:15;;;;;;;6.40;2.40;;;;;;;;;;4987469;28;20219;-87
2021/06/04 14:38:27;;;;;;;6.37;2.80;;;;;;;;;;4998443;28;20182;-85
2021/06/04 14:41:31;;;;;;;5.57;2.80;;;;;;;;;;4986954;28;20218;-85
2021/06/04 14:44:37;;;;;;;12.90;2.90;;;;;;;;;;4987300;28;20186;-86
2021/06/04 14:47:41;;;;;;;5.73;2.57;;;;;;;;;;4998172;28;20719;-85
2021/06/04 14:50:48;;;;;;;6.70;2.93;;;;;;;;;;4998090;28;20212;-87
2021/06/04 14:53:52;;;;;;;5.47;3.30;;;;;;;;;;5012477;28;21065;-85
2021/06/04 14:56:57;;;;;;;3.97;3.00;;;;;;;;;;4958370;28;20187;-86
2021/06/04 15:00:03;;;;;;;6.03;2.90;;;;;;;;;;4984350;28;20194;-86
2021/06/04 15:03:16;;;;;;;6.27;3.00;;;;;;;;;;4979120;28;20190;-86
2021/06/04 15:06:21;;;;;;;5.07;3.70;;;;;;;;;;4967589;28;20178;-87
2021/06/04 15:09:25;;;;;;;4.30;3.20;;;;;;;;;;4980981;28;20190;-86
2021/06/04 15:12:30;;;;;;;6.73;3.47;;;;;;;;;;4998894;28;20279;-86
2021/06/04 15:15:35;;;;;;;4.40;3.50;;;;;;;;;;4987437;28;20553;-87
2021/06/04 15:18:39;;;;;;;8.03;3.50;;;;;;;;;;4986989;28;20197;-87
2021/06/04 15:21:44;;;;;;;8.70;3.93;;;;;;;;;;4975965;28;20225;-87
2021/06/04 15:24:48;;;;;;;6.73;3.90;;;;;;;;;;4986792;28;20181;-88
2021/06/04 15:27:52;;;;;;;6.53;4.00;;;;;;;;;;4986871;28;20185;-87
2021/06/04 15:30:59;;;;;;;7.30;3.00;;;;;;;;;;5001781;28;20213;-87
2021/06/04 15:34:04;;;;;;;8.33;4.00;;;;;;;;;;4990457;28;20182;-87
2021/06/04 15:37:09;;;;;;;8.43;3.67;;;;;;;;;;4990346;28;20214;-87
2021/06/04 15:40:13;;;;;;;8.43;3.90;;;;;;;;;;4990645;28;20189;-84
2021/06/04 15:43:18;;;;;;;4.00;3.20;;;;;;;;;;5001688;28;20189;-85
2021/06/04 15:45:55;;;;;;;6.80;3.33;;;;;;;;;;5124952;27;20319;-83
2021/06/04 15:49:00;;;;;;;5.23;3.43;;;;;;;;;;5107584;28;20181;-84
2021/06/04 15:52:04;;;;;;;4.17;3.47;;;;;;;;;;5108250;28;20210;-83
2021/06/04 15:55:11;;;;;;;9.60;3.30;;;;;;;;;;5108847;28;20194;-83
2021/06/04 15:58:16;;;;;;;3.47;3.17;;;;;;;;;;5087636;28;20191;-83
2021/06/04 16:01:20;;;;;;;6.13;3.10;;;;;;;;;;5088171;28;20214;-83
2021/06/04 16:04:25;;;;;;;5.17;3.50;;;;;;;;;;5086748;28;20212;-83
2021/06/04 16:07:44;;;;;;;4.20;3.10;;;;;;;;;;5088430;28;20198;-83
2021/06/04 16:10:49;;;;;;;7.57;3.97;;;;;;;;;;5087592;28;20210;-83
2021/06/04 16:13:54;;;;;;;13.50;3.70;;;;;;;;;;5088139;28;20779;-84
2021/06/04 16:16:58;;;;;;;17.07;3.77;;;;;;;;;;5087251;28;20183;-83
2021/06/04 16:20:03;;;;;;;5.67;3.50;;;;;;;;;;5086298;28;20183;-83
2021/06/04 16:23:10;;;;;;;3.80;3.27;;;;;;;;;;5086500;28;20179;-83
2021/06/04 16:26:21;;;;;;;4.80;3.07;;;;;;;;;;5074598;28;20168;-83
2021/06/04 16:29:25;;;;;;;3.30;3.00;;;;;;;;;;5085755;28;20187;-83
2021/06/04 16:32:30;;;;;;;6.53;3.20;;;;;;;;;;5074650;28;20237;-83
2021/06/04 16:35:36;;;;;;;4.23;2.80;;;;;;;;;;5086048;28;20179;-83
2021/06/04 16:38:41;;;;;;;5.97;3.13;;;;;;;;;;5086918;28;20199;-86
2021/06/04 16:41:47;;;;;;;4.13;2.83;;;;;;;;;;5085539;28;20210;-83
2021/06/04 16:44:51;;;;;;;4.50;3.27;;;;;;;;;;5086613;28;20218;-83
2021/06/04 16:47:56;;;;;;;4.67;3.53;;;;;;;;;;5086021;28;20187;-84
2021/06/04 16:51:02;;;;;;;6.07;2.77;;;;;;;;;;5073827;28;20210;-83
2021/06/04 16:54:06;;;;;;;3.10;2.80;;;;;;;;;;5073725;28;20717;-83
2021/06/04 16:57:12;;;;;;;5.70;3.07;;;;;;;;;;5049865;28;20195;-88
2021/06/04 17:00:20;;;;;;;4.67;2.70;;;;;;;;;;5072380;28;20183;-83
2021/06/04 17:03:25;;;;;;;4.70;3.37;;;;;;;;;;5060672;28;20535;-83
2021/06/04 17:06:30;;;;;;;5.37;3.30;;;;;;;;;;5060630;28;20187;-83
2021/06/04 17:09:34;;;;;;;3.67;2.83;;;;;;;;;;5072731;28;20204;-83
2021/06/04 17:12:39;;;;;;;4.23;3.47;;;;;;;;;;5072556;28;20215;-82
2021/06/04 17:15:44;;;;;;;3.67;2.83;;;;;;;;;;5072855;28;20191;-83
2021/06/04 17:18:48;;;;;;;8.27;3.90;;;;;;;;;;5082998;28;20203;-82
2021/06/04 17:21:54;;;;;;;4.17;3.00;;;;;;;;;;5071813;28;20219;-82
2021/06/04 17:24:58;;;;;;;20.90;3.80;;;;;;;;;;5071528;28;20219;-83
2021/06/04 17:28:07;;;;;;;4.63;2.93;;;;;;;;;;5071821;28;20199;-83
2021/06/04 17:31:11;;;;;;;4.93;2.90;;;;;;;;;;5071744;28;20219;-82
2021/06/04 17:34:15;;;;;;;3.10;2.80;;;;;;;;;;5059921;28;20583;-83
2021/06/04 17:37:20;;;;;;;3.27;2.53;;;;;;;;;;5059867;28;20175;-83
2021/06/04 17:40:24;;;;;;;3.33;2.57;;;;;;;;;;5071322;28;20527;-83
2021/06/04 17:43:28;;;;;;;3.10;2.53;;;;;;;;;;5071073;28;20599;-82
2021/06/04 17:46:33;;;;;;;2.93;2.60;;;;;;;;;;5070998;28;20175;-83
2021/06/04 17:49:37;;;;;;;5.03;2.80;;;;;;;;;;5071298;28;20180;-83
2021/06/04 17:52:43;;;;;;;13.23;3.63;;;;;;;;;;5071883;28;20219;-86
2021/06/04 17:55:49;;;;;;;7.50;3.73;;;;;;;;;;5060263;28;20172;-83
2021/06/04 17:58:53;;;;;;;5.97;3.87;;;;;;;;;;5071715;28;20183;-82
2021/06/04 18:01:58;;;;;;;5.70;3.90;;;;;;;;;;5059708;28;20215;-83
2021/06/04 18:05:03;;;;;;;4.70;3.50;;;;;;;;;;5070634;28;20218;-83
2021/06/04 18:08:08;;;;;;;3.30;3.00;;;;;;;;;;5070322;28;20196;-83
2021/06/04 18:11:17;;;;;;;4.47;3.00;;;;;;;;;;5082976;28;20582;-83
2021/06/04 18:14:23;;;;;;;5.30;2.90;;;;;;;;;;5082864;28;20536;-82
2021/06/04 18:17:27;;;;;;;5.83;3.30;;;;;;;;;;5070790;28;20184;-83
2021/06/04 18:20:35;;;;;;;3.90;2.93;;;;;;;;;;5071268;28;20179;-83
2021/06/04 18:23:43;;;;;;;3.40;2.83;;;;;;;;;;5059293;28;20180;-83
2021/06/04 18:26:48;;;;;;;3.83;3.20;;;;;;;;;;5071171;28;20172;-83
2021/06/04 18:29:52;;;;;;;6.70;3.40;;;;;;;;;;5070210;28;20199;-82
2021/06/04 18:32:57;;;;;;;6.40;3.40;;;;;;;;;;5071725;28;20191;-82
2021/06/04 18:36:02;;;;;;;7.00;3.57;;;;;;;;;;5082045;28;20523;-83
2021/06/04 18:39:06;;;;;;;6.03;3.37;;;;;;;;;;5066039;28;20187;-83
2021/06/04 18:42:11;;;;;;;7.30;3.07;;;;;;;;;;5062334;28;20215;-83
2021/06/04 18:45:17;;;;;;;4.30;3.37;;;;;;;;;;5059985;28;20610;-83
2021/06/04 18:48:21;;;;;;;4.30;2.87;;;;;;;;;;5081308;28;20192;-83
2021/06/04 18:51:28;;;;;;;5.27;3.30;;;;;;;;;;5058497;28;20551;-82
2021/06/04 18:54:33;;;;;;;3.57;3.20;;;;;;;;;;5070552;28;20839;-82
2021/06/04 18:57:37;;;;;;;5.77;3.10;;;;;;;;;;5081363;28;20186;-83
2021/06/04 19:00:48;;;;;;;5.00;3.27;;;;;;;;;;5079287;28;20203;-82
2021/06/04 19:03:54;;;;;;;4.23;3.20;;;;;;;;;;5058091;28;20555;-82
2021/06/04 19:06:59;;;;;;;6.33;3.40;;;;;;;;;;5070429;28;20176;-82
2021/06/04 19:10:05;;;;;;;4.17;3.03;;;;;;;;;;5080810;28;20202;-83
2021/06/04 19:13:11;;;;;;;3.30;2.93;;;;;;;;;;5057870;28;20179;-82
2021/06/04 19:16:16;;;;;;;5.53;2.87;;;;;;;;;;5058065;28;20179;-83
2021/06/04 19:19:20;;;;;;;4.40;2.93;;;;;;;;;;5073097;28;20182;-84
2021/06/04 19:22:24;;;;;;;5.03;3.10;;;;;;;;;;5090033;28;20218;-83
2021/06/04 19:25:35;;;;;;;4.67;2.80;;;;;;;;;;5078062;28;20207;-82
2021/06/04 19:28:39;;;;;;;5.67;2.90;;;;;;;;;;5069849;28;20191;-83
2021/06/04 19:31:44;;;;;;;4.07;3.03;;;;;;;;;;5069045;28;20215;-83
2021/06/04 19:34:48;;;;;;;4.73;2.90;;;;;;;;;;5070935;28;20198;-82
2021/06/04 19:37:55;;;;;;;2.87;2.60;;;;;;;;;;5057701;28;20199;-83
2021/06/04 19:41:06;;;;;;;2.80;2.47;;;;;;;;;;5057424;28;20574;-83
2021/06/04 19:44:12;;;;;;;3.00;2.40;;;;;;;;;;5064540;28;20206;-83
2021/06/04 19:47:16;;;;;;;5.77;2.70;;;;;;;;;;5057966;28;20649;-82
2021/06/04 19:50:22;;;;;;;3.73;2.57;;;;;;;;;;5084246;28;20210;-83
2021/06/04 19:53:27;;;;;;;5.27;2.70;;;;;;;;;;5069571;28;20196;-82
2021/06/04 19:56:34;;;;;;;8.90;2.93;;;;;;;;;;5076228;28;20187;-83
2021/06/04 19:59:38;;;;;;;4.63;2.70;;;;;;;;;;5079173;28;20187;-82
2021/06/04 20:02:43;;;;;;;6.70;2.70;;;;;;;;;;5068915;28;20223;-86
2021/06/04 20:05:49;;;;;;;5.27;2.50;;;;;;;;;;5046596;28;20200;-87
2021/06/04 20:08:53;;;;;;;8.07;2.93;;;;;;;;;;5057351;28;20188;-88
2021/06/04 20:11:58;;;;;;;5.20;2.93;;;;;;;;;;5057065;28;20219;-88
2021/06/04 20:15:04;;;;;;;8.23;2.70;;;;;;;;;;5070488;28;20191;-89
2021/06/04 20:18:08;;;;;;;4.53;2.70;;;;;;;;;;5077193;28;20175;-89
2021/06/04 20:21:14;;;;;;;5.67;2.73;;;;;;;;;;5065292;28;20211;-88
2021/06/04 20:24:19;;;;;;;5.47;2.90;;;;;;;;;;5065898;28;20183;-88
2021/06/04 20:27:24;;;;;;;4.67;2.77;;;;;;;;;;5077459;28;20638;-88
2021/06/04 20:30:29;;;;;;;9.43;2.73;;;;;;;;;;5077121;28;20642;-88
2021/06/04 20:33:38;;;;;;;3.83;2.60;;;;;;;;;;5080889;28;20182;-89
2021/06/04 20:36:43;;;;;;;4.53;2.90;;;;;;;;;;5072118;28;20648;-87
2021/06/04 20:39:47;;;;;;;5.80;2.97;;;;;;;;;;5072175;28;20175;-88
2021/06/04 20:42:52;;;;;;;5.93;2.60;;;;;;;;;;5070284;28;20183;-88
2021/06/04 20:46:00;;;;;;;6.27;3.00;;;;;;;;;;5049303;28;20199;-88
2021/06/04 20:49:09;;;;;;;4.00;2.63;;;;;;;;;;5065996;28;20203;-88
2021/06/04 20:52:17;;;;;;;3.67;2.77;;;;;;;;;;5072707;28;20574;-88
2021/06/04 20:55:24;;;;;;;7.23;3.30;;;;;;;;;;5068361;28;20187;-88
2021/06/04 20:58:28;;;;;;;5.13;3.10;;;;;;;;;;5081527;28;20535;-87
2021/06/04 21:01:34;;;;;;;7.10;2.80;;;;;;;;;;5059665;28;20218;-87
2021/06/04 21:04:40;;;;;;;5.93;2.70;;;;;;;;;;5060501;28;20195;-88
2021/06/04 21:07:45;;;;;;;3.50;2.70;;;;;;;;;;5078206;28;20175;-88
2021/06/04 21:10:49;;;;;;;4.67;2.83;;;;;;;;;;5071998;28;20227;-87
2021/06/04 21:13:54;;;;;;;8.03;3.13;;;;;;;;;;5070977;28;20190;-88
2021/06/04 21:16:59;;;;;;;4.87;2.70;;;;;;;;;;5068477;28;20175;-88
2021/06/04 21:20:09;;;;;;;4.90;2.77;;;;;;;;;;5081712;28;20187;-88
2021/06/04 21:23:16;;;;;;;3.17;2.83;;;;;;;;;;5053926;28;20211;-88
2021/06/04 21:26:24;;;;;;;4.23;2.50;;;;;;;;;;5089897;28;20207;-88
2021/06/04 21:29:28;;;;;;;5.37;2.47;;;;;;;;;;5056633;28;20196;-88
2021/06/04 21:32:33;;;;;;;4.60;2.77;;;;;;;;;;5081709;28;20210;-88
2021/06/04 21:35:38;;;;;;;4.10;2.53;;;;;;;;;;5070875;28;20192;-87
2021/06/04 21:38:43;;;;;;;7.70;3.00;;;;;;;;;;5068810;28;20188;-89
2021/06/04 21:41:47;;;;;;;4.97;3.17;;;;;;;;;;5081137;28;20222;-88
2021/06/04 21:44:51;;;;;;;4.73;3.00;;;;;;;;;;5069340;28;20206;-88
2021/06/04 21:47:55;;;;;;;5.50;4.83;;;;;;;;;;5088255;22;20642;-85
2021/06/04 21:50:59;;;;;;;7.00;4.00;;;;;;;;;;5015451;28;20178;-82
2021/06/04 21:54:04;;;;;;;3.47;3.17;;;;;;;;;;5023972;28;20200;-82
2021/06/04 21:57:08;;;;;;;4.33;3.20;;;;;;;;;;4992526;28;20178;-82
2021/06/04 22:00:18;;;;;;;3.10;2.80;;;;;;;;;;5010599;28;20201;-82
2021/06/04 22:03:27;;;;;;;4.77;3.00;;;;;;;;;;5021926;28;20655;-82
2021/06/04 22:06:34;;;;;;;3.60;2.63;;;;;;;;;;4992800;28;20213;-82
2021/06/04 22:09:39;;;;;;;4.83;2.97;;;;;;;;;;4992281;28;20221;-82
2021/06/04 22:12:43;;;;;;;3.23;2.93;;;;;;;;;;5003469;28;20185;-82
2021/06/04 22:15:47;;;;;;;3.33;3.00;;;;;;;;;;5023963;28;20193;-82
2021/06/04 22:18:51;;;;;;;5.90;3.03;;;;;;;;;;5015482;28;20221;-82
2021/06/04 22:21:55;;;;;;;4.00;3.17;;;;;;;;;;4991923;28;20182;-82
2021/06/04 22:25:00;;;;;;;3.20;2.90;;;;;;;;;;5003212;28;20198;-82
2021/06/04 22:28:14;;;;;;;3.97;3.00;;;;;;;;;;5020016;28;20208;-82
2021/06/04 22:31:22;;;;;;;3.30;2.40;;;;;;;;;;4992143;28;20526;-82
2021/06/04 22:34:27;;;;;;;4.97;3.40;;;;;;;;;;5001315;28;20189;-82
2021/06/04 22:37:31;;;;;;;13.50;9.27;;;;;;;;;;5002890;28;20185;-82
2021/06/04 22:40:35;;;;;;;13.23;9.53;;;;;;;;;;5008259;28;20193;-82
2021/06/04 22:43:40;;;;;;;4.87;3.30;;;;;;;;;;5018400;28;20189;-83
2021/06/04 22:46:44;;;;;;;5.30;3.37;;;;;;;;;;5002880;28;20213;-83
2021/06/04 22:49:48;;;;;;;3.93;3.50;;;;;;;;;;5013935;28;20721;-81
2021/06/04 22:52:53;;;;;;;3.20;2.90;;;;;;;;;;5002301;28;20201;-81
2021/06/04 22:56:00;;;;;;;4.13;3.60;;;;;;;;;;4989462;28;20292;-83
2021/06/04 22:59:06;;;;;;;5.07;3.43;;;;;;;;;;5001590;28;20221;-84
2021/06/04 23:02:10;;;;;;;4.57;3.50;;;;;;;;;;5014174;28;20182;-82
2021/06/04 23:05:14;;;;;;;5.00;4.17;;;;;;;;;;5007840;28;20201;-82
2021/06/04 23:08:19;;;;;;;5.77;3.73;;;;;;;;;;5022294;28;20557;-83
2021/06/04 23:11:25;;;;;;;6.60;3.80;;;;;;;;;;5021707;28;20200;-84
2021/06/04 23:14:30;;;;;;;3.73;3.33;;;;;;;;;;5021684;28;20197;-83
2021/06/04 23:17:35;;;;;;;3.60;3.10;;;;;;;;;;5013166;28;20664;-82
2021/06/04 23:20:39;;;;;;;3.67;3.37;;;;;;;;;;4991489;28;20186;-82
2021/06/04 23:23:53;;;;;;;7.73;3.97;;;;;;;;;;5006958;28;20563;-82
2021/06/04 23:26:57;;;;;;;3.50;3.20;;;;;;;;;;5001503;28;20545;-83
2021/06/04 23:30:03;;;;;;;4.47;3.97;;;;;;;;;;5029758;28;20224;-82
2021/06/04 23:33:08;;;;;;;6.37;3.80;;;;;;;;;;5021541;28;20193;-84
2021/06/04 23:36:14;;;;;;;4.07;3.53;;;;;;;;;;4982445;28;20201;-82
2021/06/04 23:39:18;;;;;;;5.47;4.00;;;;;;;;;;5005389;28;20222;-82
2021/06/04 23:42:23;;;;;;;6.20;4.00;;;;;;;;;;4982644;28;20182;-82
2021/06/04 23:45:30;;;;;;;4.43;4.03;;;;;;;;;;5032472;28;20188;-82
2021/06/04 23:48:35;;;;;;;5.60;3.83;;;;;;;;;;5032626;28;20729;-82
2021/06/04 23:51:39;;;;;;;6.03;4.03;;;;;;;;;;4988378;28;20197;-82
2021/06/04 23:54:44;;;;;;;5.37;3.50;;;;;;;;;;5002508;28;20190;-83
2021/06/04 23:57:48;;;;;;;4.73;3.97;;;;;;;;;;4990716;28;20177;-84
